sensor_id;sensor_type;location;lat;lon;timestamp;temperature;humidity
52509;DHT22;38420;53.150;6.370;2024-01-07T00:01:56;-0.10;99.90
52509;DHT22;38420;53.150;6.370;2024-01-07T00:04:22;0.10;99.90
52509;DHT22;38420;53.150;6.370;2024-01-07T00:06:47;0.10;99.90
52509;DHT22;38420;53.150;6.370;2024-01-07T00:09:13;-0.20;99.90
52509;DHT22;38420;53.150;6.370;2024-01-07T00:11:39;0.30;99.90
52509;DHT22;38420;53.150;6.370;2024-01-07T00:14:05;0.00;99.90
52509;DHT22;38420;53.150;6.370;2024-01-07T00:16:31;0.20;99.90
52509;DHT22;38420;53.150;6.370;2024-01-07T00:18:56;-0.20;99.90
52509;DHT22;38420;53.150;6.370;2024-01-07T00:21:22;-0.10;99.90
52509;DHT22;38420;53.150;6.370;2024-01-07T00:23:48;0.10;99.90
52509;DHT22;38420;53.150;6.370;2024-01-07T00:26:13;0.20;99.90
52509;DHT22;38420;53.150;6.370;2024-01-07T00:28:39;0.10;99.90
52509;DHT22;38420;53.150;6.370;2024-01-07T00:31:05;-0.20;99.90
52509;DHT22;38420;53.150;6.370;2024-01-07T00:33:34;-0.10;99.90
52509;DHT22;38420;53.150;6.370;2024-01-07T00:36:00;-0.20;99.90
52509;DHT22;38420;53.150;6.370;2024-01-07T00:38:25;0.10;99.90
52509;DHT22;38420;53.150;6.370;2024-01-07T00:40:51;-0.30;99.90
52509;DHT22;38420;53.150;6.370;2024-01-07T00:43:16;-0.20;99.90
52509;DHT22;38420;53.150;6.370;2024-01-07T00:45:43;0.00;99.90
52509;DHT22;38420;53.150;6.370;2024-01-07T00:48:09;-0.30;99.90
52509;DHT22;38420;53.150;6.370;2024-01-07T00:50:34;-0.20;99.90
52509;DHT22;38420;53.150;6.370;2024-01-07T00:53:00;0.00;99.90
52509;DHT22;38420;53.150;6.370;2024-01-07T00:55:26;0.00;99.90
52509;DHT22;38420;53.150;6.370;2024-01-07T00:57:51;-0.10;99.90
52509;DHT22;38420;53.150;6.370;2024-01-07T01:00:17;-0.30;99.90
52509;DHT22;38420;53.150;6.370;2024-01-07T01:02:43;-0.10;99.90
52509;DHT22;38420;53.150;6.370;2024-01-07T01:05:08;-0.40;99.90
52509;DHT22;38420;53.150;6.370;2024-01-07T01:07:34;-0.20;99.90
52509;DHT22;38420;53.150;6.370;2024-01-07T01:10:00;0.00;99.90
52509;DHT22;38420;53.150;6.370;2024-01-07T01:12:25;-0.40;99.90
52509;DHT22;38420;53.150;6.370;2024-01-07T01:14:52;-0.40;99.90
52509;DHT22;38420;53.150;6.370;2024-01-07T01:17:17;0.00;99.90
52509;DHT22;38420;53.150;6.370;2024-01-07T01:19:43;-0.30;99.90
52509;DHT22;38420;53.150;6.370;2024-01-07T01:22:08;0.00;99.90
52509;DHT22;38420;53.150;6.370;2024-01-07T01:24:34;-0.30;99.90
52509;DHT22;38420;53.150;6.370;2024-01-07T01:27:00;0.00;99.90
52509;DHT22;38420;53.150;6.370;2024-01-07T01:29:25;-0.30;99.90
52509;DHT22;38420;53.150;6.370;2024-01-07T01:31:51;-0.20;99.90
52509;DHT22;38420;53.150;6.370;2024-01-07T01:34:17;-0.30;99.90
52509;DHT22;38420;53.150;6.370;2024-01-07T01:36:42;-0.30;99.90
52509;DHT22;38420;53.150;6.370;2024-01-07T01:39:08;0.10;99.90
52509;DHT22;38420;53.150;6.370;2024-01-07T01:41:33;-0.10;99.90
52509;DHT22;38420;53.150;6.370;2024-01-07T01:44:00;0.10;99.90
52509;DHT22;38420;53.150;6.370;2024-01-07T01:46:26;-0.20;99.90
52509;DHT22;38420;53.150;6.370;2024-01-07T01:48:54;0.00;99.90
52509;DHT22;38420;53.150;6.370;2024-01-07T01:51:20;0.10;99.90
52509;DHT22;38420;53.150;6.370;2024-01-07T01:53:47;0.00;99.90
52509;DHT22;38420;53.150;6.370;2024-01-07T01:56:14;0.10;99.90
52509;DHT22;38420;53.150;6.370;2024-01-07T01:58:42;0.20;99.90
52509;DHT22;38420;53.150;6.370;2024-01-07T02:01:08;0.20;99.90
52509;DHT22;38420;53.150;6.370;2024-01-07T02:03:33;0.10;99.90
52509;DHT22;38420;53.150;6.370;2024-01-07T02:05:59;-0.30;99.90
52509;DHT22;38420;53.150;6.370;2024-01-07T02:08:25;0.00;99.90
52509;DHT22;38420;53.150;6.370;2024-01-07T02:10:51;0.00;99.90
52509;DHT22;38420;53.150;6.370;2024-01-07T02:13:16;-0.20;99.90
52509;DHT22;38420;53.150;6.370;2024-01-07T02:15:43;-0.10;99.90
52509;DHT22;38420;53.150;6.370;2024-01-07T02:18:09;-0.40;99.90
52509;DHT22;38420;53.150;6.370;2024-01-07T02:20:34;-0.40;99.90
52509;DHT22;38420;53.150;6.370;2024-01-07T02:23:01;-0.30;99.90
52509;DHT22;38420;53.150;6.370;2024-01-07T02:25:27;-0.10;99.90
52509;DHT22;38420;53.150;6.370;2024-01-07T02:27:52;-0.20;99.90
52509;DHT22;38420;53.150;6.370;2024-01-07T02:30:18;-0.40;99.90
52509;DHT22;38420;53.150;6.370;2024-01-07T02:32:44;-0.20;99.90
52509;DHT22;38420;53.150;6.370;2024-01-07T02:35:09;-0.30;99.90
52509;DHT22;38420;53.150;6.370;2024-01-07T02:37:35;-0.40;99.90
52509;DHT22;38420;53.150;6.370;2024-01-07T02:40:01;-0.30;99.90
52509;DHT22;38420;53.150;6.370;2024-01-07T02:42:26;-0.40;99.90
52509;DHT22;38420;53.150;6.370;2024-01-07T02:44:52;-0.30;99.90
52509;DHT22;38420;53.150;6.370;2024-01-07T02:47:17;-0.30;99.90
52509;DHT22;38420;53.150;6.370;2024-01-07T02:49:43;-0.10;99.90
52509;DHT22;38420;53.150;6.370;2024-01-07T02:52:09;-0.20;99.90
52509;DHT22;38420;53.150;6.370;2024-01-07T02:54:34;-0.10;99.90
52509;DHT22;38420;53.150;6.370;2024-01-07T02:57:00;-0.10;99.90
52509;DHT22;38420;53.150;6.370;2024-01-07T02:59:25;-0.10;99.90
52509;DHT22;38420;53.150;6.370;2024-01-07T03:01:51;-0.30;99.90
52509;DHT22;38420;53.150;6.370;2024-01-07T03:04:16;-0.10;99.90
52509;DHT22;38420;53.150;6.370;2024-01-07T03:06:42;-0.30;99.90
52509;DHT22;38420;53.150;6.370;2024-01-07T03:09:08;-0.10;99.90
52509;DHT22;38420;53.150;6.370;2024-01-07T03:11:39;-0.30;99.90
52509;DHT22;38420;53.150;6.370;2024-01-07T03:14:05;-0.30;99.90
52509;DHT22;38420;53.150;6.370;2024-01-07T03:16:31;-0.30;99.90
52509;DHT22;38420;53.150;6.370;2024-01-07T03:18:56;-0.40;99.90
52509;DHT22;38420;53.150;6.370;2024-01-07T03:21:23;-0.10;99.90
52509;DHT22;38420;53.150;6.370;2024-01-07T03:23:50;-0.30;99.90
52509;DHT22;38420;53.150;6.370;2024-01-07T03:26:17;-0.20;99.90
52509;DHT22;38420;53.150;6.370;2024-01-07T03:28:43;-0.30;99.90
52509;DHT22;38420;53.150;6.370;2024-01-07T03:31:14;-0.10;99.90
52509;DHT22;38420;53.150;6.370;2024-01-07T03:33:40;-0.30;99.90
52509;DHT22;38420;53.150;6.370;2024-01-07T03:36:10;-0.20;99.90
52509;DHT22;38420;53.150;6.370;2024-01-07T03:38:36;-0.20;99.90
52509;DHT22;38420;53.150;6.370;2024-01-07T03:41:02;-0.30;99.90
52509;DHT22;38420;53.150;6.370;2024-01-07T03:43:28;-0.30;99.90
52509;DHT22;38420;53.150;6.370;2024-01-07T03:45:54;-0.10;99.90
52509;DHT22;38420;53.150;6.370;2024-01-07T03:48:20;-0.30;99.90
52509;DHT22;38420;53.150;6.370;2024-01-07T03:50:45;-0.20;99.90
52509;DHT22;38420;53.150;6.370;2024-01-07T03:53:11;-0.30;99.90
52509;DHT22;38420;53.150;6.370;2024-01-07T03:55:37;-0.10;99.90
52509;DHT22;38420;53.150;6.370;2024-01-07T03:58:04;-0.10;99.90
52509;DHT22;38420;53.150;6.370;2024-01-07T04:00:29;-0.30;99.90
52509;DHT22;38420;53.150;6.370;2024-01-07T04:02:55;-0.10;99.90
52509;DHT22;38420;53.150;6.370;2024-01-07T04:05:20;-0.30;99.90
52509;DHT22;38420;53.150;6.370;2024-01-07T04:07:46;-0.30;99.90
52509;DHT22;38420;53.150;6.370;2024-01-07T04:10:12;-0.20;99.90
52509;DHT22;38420;53.150;6.370;2024-01-07T04:12:38;-0.20;99.90
52509;DHT22;38420;53.150;6.370;2024-01-07T04:15:04;-0.20;99.90
52509;DHT22;38420;53.150;6.370;2024-01-07T04:17:30;-0.30;99.90
52509;DHT22;38420;53.150;6.370;2024-01-07T04:19:55;-0.30;99.90
52509;DHT22;38420;53.150;6.370;2024-01-07T04:22:21;-0.40;99.90
52509;DHT22;38420;53.150;6.370;2024-01-07T04:24:47;-0.30;99.90
52509;DHT22;38420;53.150;6.370;2024-01-07T04:27:12;-0.30;99.90
52509;DHT22;38420;53.150;6.370;2024-01-07T04:29:38;-0.40;99.90
52509;DHT22;38420;53.150;6.370;2024-01-07T04:32:03;-0.40;99.90
52509;DHT22;38420;53.150;6.370;2024-01-07T04:34:29;-0.30;99.90
52509;DHT22;38420;53.150;6.370;2024-01-07T04:36:55;-0.30;99.90
52509;DHT22;38420;53.150;6.370;2024-01-07T04:39:20;-0.40;99.90
52509;DHT22;38420;53.150;6.370;2024-01-07T04:41:46;-0.30;99.90
52509;DHT22;38420;53.150;6.370;2024-01-07T04:44:11;-0.30;99.90
52509;DHT22;38420;53.150;6.370;2024-01-07T04:46:39;-0.20;99.90
52509;DHT22;38420;53.150;6.370;2024-01-07T04:49:05;-0.30;99.90
52509;DHT22;38420;53.150;6.370;2024-01-07T04:51:32;-0.30;99.90
52509;DHT22;38420;53.150;6.370;2024-01-07T04:53:57;-0.30;99.90
52509;DHT22;38420;53.150;6.370;2024-01-07T04:56:23;-0.20;99.90
52509;DHT22;38420;53.150;6.370;2024-01-07T04:58:49;-0.20;99.90
52509;DHT22;38420;53.150;6.370;2024-01-07T05:01:14;-0.20;99.90
52509;DHT22;38420;53.150;6.370;2024-01-07T05:03:40;-0.20;99.90
52509;DHT22;38420;53.150;6.370;2024-01-07T05:06:08;-0.20;99.90
52509;DHT22;38420;53.150;6.370;2024-01-07T05:08:36;-0.20;99.90
52509;DHT22;38420;53.150;6.370;2024-01-07T05:11:03;-0.30;99.90
52509;DHT22;38420;53.150;6.370;2024-01-07T05:13:29;-0.20;99.90
52509;DHT22;38420;53.150;6.370;2024-01-07T05:15:55;-0.10;99.90
52509;DHT22;38420;53.150;6.370;2024-01-07T05:18:24;-0.30;99.90
52509;DHT22;38420;53.150;6.370;2024-01-07T05:20:50;-0.10;99.90
52509;DHT22;38420;53.150;6.370;2024-01-07T05:23:15;-0.20;99.90
52509;DHT22;38420;53.150;6.370;2024-01-07T05:25:44;-0.20;99.90
52509;DHT22;38420;53.150;6.370;2024-01-07T05:28:14;-0.20;99.90
52509;DHT22;38420;53.150;6.370;2024-01-07T05:30:39;-0.10;99.90
52509;DHT22;38420;53.150;6.370;2024-01-07T05:33:05;-0.10;99.90
52509;DHT22;38420;53.150;6.370;2024-01-07T05:35:31;-0.20;99.90
52509;DHT22;38420;53.150;6.370;2024-01-07T05:37:57;-0.20;99.90
52509;DHT22;38420;53.150;6.370;2024-01-07T05:40:23;-0.20;99.90
52509;DHT22;38420;53.150;6.370;2024-01-07T05:42:48;-0.20;99.90
52509;DHT22;38420;53.150;6.370;2024-01-07T05:45:14;-0.10;99.90
52509;DHT22;38420;53.150;6.370;2024-01-07T05:47:40;-0.10;99.90
52509;DHT22;38420;53.150;6.370;2024-01-07T05:50:09;-0.10;99.90
52509;DHT22;38420;53.150;6.370;2024-01-07T05:52:36;-0.20;99.90
52509;DHT22;38420;53.150;6.370;2024-01-07T05:55:01;-0.10;99.90
52509;DHT22;38420;53.150;6.370;2024-01-07T05:57:27;-0.20;99.90
52509;DHT22;38420;53.150;6.370;2024-01-07T05:59:53;-0.20;99.90
52509;DHT22;38420;53.150;6.370;2024-01-07T06:02:18;-0.20;99.90
52509;DHT22;38420;53.150;6.370;2024-01-07T06:04:44;-0.20;99.90
52509;DHT22;38420;53.150;6.370;2024-01-07T06:07:10;-0.10;99.90
52509;DHT22;38420;53.150;6.370;2024-01-07T06:09:35;-0.20;99.90
52509;DHT22;38420;53.150;6.370;2024-01-07T06:12:01;-0.20;99.90
52509;DHT22;38420;53.150;6.370;2024-01-07T06:14:27;-0.10;99.90
52509;DHT22;38420;53.150;6.370;2024-01-07T06:16:52;-0.10;99.90
52509;DHT22;38420;53.150;6.370;2024-01-07T06:19:18;-0.10;99.90
52509;DHT22;38420;53.150;6.370;2024-01-07T06:21:44;-0.10;99.90
52509;DHT22;38420;53.150;6.370;2024-01-07T06:24:10;-0.20;99.90
52509;DHT22;38420;53.150;6.370;2024-01-07T06:26:36;-0.20;99.90
52509;DHT22;38420;53.150;6.370;2024-01-07T06:29:02;-0.20;99.90
52509;DHT22;38420;53.150;6.370;2024-01-07T06:31:27;-0.10;99.90
52509;DHT22;38420;53.150;6.370;2024-01-07T06:33:53;-0.10;99.90
52509;DHT22;38420;53.150;6.370;2024-01-07T06:36:21;-0.10;99.90
52509;DHT22;38420;53.150;6.370;2024-01-07T06:38:47;-0.10;99.90
52509;DHT22;38420;53.150;6.370;2024-01-07T06:41:14;-0.20;99.90
52509;DHT22;38420;53.150;6.370;2024-01-07T06:43:40;-0.20;99.90
52509;DHT22;38420;53.150;6.370;2024-01-07T06:46:05;-0.20;99.90
52509;DHT22;38420;53.150;6.370;2024-01-07T06:48:31;-0.10;99.90
52509;DHT22;38420;53.150;6.370;2024-01-07T06:50:57;-0.10;99.90
52509;DHT22;38420;53.150;6.370;2024-01-07T06:53:23;-0.10;99.90
52509;DHT22;38420;53.150;6.370;2024-01-07T06:55:49;-0.20;99.90
52509;DHT22;38420;53.150;6.370;2024-01-07T06:58:14;-0.10;99.90
52509;DHT22;38420;53.150;6.370;2024-01-07T07:00:40;-0.20;99.90
52509;DHT22;38420;53.150;6.370;2024-01-07T07:03:06;-0.10;99.90
52509;DHT22;38420;53.150;6.370;2024-01-07T07:05:32;-0.20;99.90
52509;DHT22;38420;53.150;6.370;2024-01-07T07:07:58;-0.10;99.90
52509;DHT22;38420;53.150;6.370;2024-01-07T07:10:23;-0.10;99.90
52509;DHT22;38420;53.150;6.370;2024-01-07T07:12:49;-0.10;99.90
52509;DHT22;38420;53.150;6.370;2024-01-07T07:15:18;-0.20;99.90
52509;DHT22;38420;53.150;6.370;2024-01-07T07:17:43;-0.20;99.90
52509;DHT22;38420;53.150;6.370;2024-01-07T07:20:10;-0.20;99.90
52509;DHT22;38420;53.150;6.370;2024-01-07T07:22:36;-0.20;99.90
52509;DHT22;38420;53.150;6.370;2024-01-07T07:25:02;-0.30;99.90
52509;DHT22;38420;53.150;6.370;2024-01-07T07:27:27;-0.30;99.90
52509;DHT22;38420;53.150;6.370;2024-01-07T07:29:53;-0.30;99.90
52509;DHT22;38420;53.150;6.370;2024-01-07T07:32:19;-0.30;99.90
52509;DHT22;38420;53.150;6.370;2024-01-07T07:34:44;-0.30;99.90
52509;DHT22;38420;53.150;6.370;2024-01-07T07:37:10;-0.30;99.90
52509;DHT22;38420;53.150;6.370;2024-01-07T07:39:35;-0.40;99.90
52509;DHT22;38420;53.150;6.370;2024-01-07T07:42:01;-0.40;99.90
52509;DHT22;38420;53.150;6.370;2024-01-07T07:44:27;-0.40;99.90
52509;DHT22;38420;53.150;6.370;2024-01-07T07:46:52;-0.40;99.90
52509;DHT22;38420;53.150;6.370;2024-01-07T07:49:18;-0.50;99.90
52509;DHT22;38420;53.150;6.370;2024-01-07T07:51:44;-0.50;99.90
52509;DHT22;38420;53.150;6.370;2024-01-07T07:54:09;-0.50;99.90
52509;DHT22;38420;53.150;6.370;2024-01-07T07:56:35;-0.60;99.90
52509;DHT22;38420;53.150;6.370;2024-01-07T07:59:01;-0.60;99.90
52509;DHT22;38420;53.150;6.370;2024-01-07T08:01:27;-0.70;99.90
52509;DHT22;38420;53.150;6.370;2024-01-07T08:03:53;-0.70;99.90
52509;DHT22;38420;53.150;6.370;2024-01-07T08:06:19;-0.70;99.90
52509;DHT22;38420;53.150;6.370;2024-01-07T08:08:44;-0.70;99.90
52509;DHT22;38420;53.150;6.370;2024-01-07T08:11:10;-0.80;99.90
52509;DHT22;38420;53.150;6.370;2024-01-07T08:13:37;-0.80;99.90
52509;DHT22;38420;53.150;6.370;2024-01-07T08:16:04;-0.80;99.90
52509;DHT22;38420;53.150;6.370;2024-01-07T08:18:32;-0.80;99.90
52509;DHT22;38420;53.150;6.370;2024-01-07T08:20:58;-0.70;99.90
52509;DHT22;38420;53.150;6.370;2024-01-07T08:23:25;-0.80;99.90
52509;DHT22;38420;53.150;6.370;2024-01-07T08:25:50;-0.70;99.90
52509;DHT22;38420;53.150;6.370;2024-01-07T08:28:17;-0.70;99.90
52509;DHT22;38420;53.150;6.370;2024-01-07T08:30:43;-0.70;99.90
52509;DHT22;38420;53.150;6.370;2024-01-07T08:33:10;-0.70;99.90
52509;DHT22;38420;53.150;6.370;2024-01-07T08:35:36;-0.70;99.90
52509;DHT22;38420;53.150;6.370;2024-01-07T08:38:01;-0.70;99.90
52509;DHT22;38420;53.150;6.370;2024-01-07T08:40:27;-0.60;99.90
52509;DHT22;38420;53.150;6.370;2024-01-07T08:42:52;-0.60;99.90
52509;DHT22;38420;53.150;6.370;2024-01-07T08:45:18;-0.60;99.90
52509;DHT22;38420;53.150;6.370;2024-01-07T08:47:44;-0.50;99.90
52509;DHT22;38420;53.150;6.370;2024-01-07T08:50:10;-0.50;99.90
52509;DHT22;38420;53.150;6.370;2024-01-07T08:52:35;-0.50;99.90
52509;DHT22;38420;53.150;6.370;2024-01-07T08:55:02;-0.40;99.90
52509;DHT22;38420;53.150;6.370;2024-01-07T08:57:28;-0.40;99.90
52509;DHT22;38420;53.150;6.370;2024-01-07T08:59:53;-0.40;99.90
52509;DHT22;38420;53.150;6.370;2024-01-07T09:02:19;-0.30;99.90
52509;DHT22;38420;53.150;6.370;2024-01-07T09:04:44;-0.30;99.90
52509;DHT22;38420;53.150;6.370;2024-01-07T09:07:10;-0.30;99.90
52509;DHT22;38420;53.150;6.370;2024-01-07T09:09:36;-0.20;99.90
52509;DHT22;38420;53.150;6.370;2024-01-07T09:12:01;-0.20;99.90
52509;DHT22;38420;53.150;6.370;2024-01-07T09:14:29;-0.20;99.90
52509;DHT22;38420;53.150;6.370;2024-01-07T09:16:55;-0.20;99.90
52509;DHT22;38420;53.150;6.370;2024-01-07T09:19:20;-0.20;99.90
52509;DHT22;38420;53.150;6.370;2024-01-07T09:21:46;-0.20;99.90
52509;DHT22;38420;53.150;6.370;2024-01-07T09:24:12;-0.20;99.90
52509;DHT22;38420;53.150;6.370;2024-01-07T09:26:37;-0.10;99.90
52509;DHT22;38420;53.150;6.370;2024-01-07T09:29:03;-0.10;99.90
52509;DHT22;38420;53.150;6.370;2024-01-07T09:31:29;-0.10;99.90
52509;DHT22;38420;53.150;6.370;2024-01-07T09:33:54;0.00;99.90
52509;DHT22;38420;53.150;6.370;2024-01-07T09:36:20;0.00;99.90
52509;DHT22;38420;53.150;6.370;2024-01-07T09:38:45;0.00;99.90
52509;DHT22;38420;53.150;6.370;2024-01-07T09:41:11;0.00;99.90
52509;DHT22;38420;53.150;6.370;2024-01-07T09:43:37;0.00;99.90
52509;DHT22;38420;53.150;6.370;2024-01-07T09:46:02;0.10;99.90
52509;DHT22;38420;53.150;6.370;2024-01-07T09:48:29;0.10;99.90
52509;DHT22;38420;53.150;6.370;2024-01-07T09:50:56;0.10;99.90
52509;DHT22;38420;53.150;6.370;2024-01-07T09:53:25;0.10;99.90
52509;DHT22;38420;53.150;6.370;2024-01-07T09:58:26;0.10;99.90
52509;DHT22;38420;53.150;6.370;2024-01-07T10:00:52;0.10;99.90
52509;DHT22;38420;53.150;6.370;2024-01-07T10:03:18;0.20;99.90
52509;DHT22;38420;53.150;6.370;2024-01-07T10:05:43;0.20;99.90
52509;DHT22;38420;53.150;6.370;2024-01-07T10:08:09;0.20;99.90
52509;DHT22;38420;53.150;6.370;2024-01-07T10:10:35;0.30;99.90
52509;DHT22;38420;53.150;6.370;2024-01-07T10:13:01;0.30;99.90
52509;DHT22;38420;53.150;6.370;2024-01-07T10:15:27;0.20;99.90
52509;DHT22;38420;53.150;6.370;2024-01-07T10:18:03;0.20;99.90
52509;DHT22;38420;53.150;6.370;2024-01-07T10:20:29;0.30;99.90
52509;DHT22;38420;53.150;6.370;2024-01-07T10:22:56;0.30;99.90
52509;DHT22;38420;53.150;6.370;2024-01-07T10:25:22;0.30;99.90
52509;DHT22;38420;53.150;6.370;2024-01-07T10:27:48;0.30;99.90
52509;DHT22;38420;53.150;6.370;2024-01-07T10:30:15;0.40;99.90
52509;DHT22;38420;53.150;6.370;2024-01-07T10:32:42;0.40;99.90
52509;DHT22;38420;53.150;6.370;2024-01-07T10:35:14;0.40;99.90
52509;DHT22;38420;53.150;6.370;2024-01-07T10:37:42;0.40;99.90
52509;DHT22;38420;53.150;6.370;2024-01-07T10:40:11;0.50;99.90
52509;DHT22;38420;53.150;6.370;2024-01-07T10:42:38;0.40;99.90
52509;DHT22;38420;53.150;6.370;2024-01-07T10:45:04;0.50;99.90
52509;DHT22;38420;53.150;6.370;2024-01-07T10:47:31;0.50;99.90
52509;DHT22;38420;53.150;6.370;2024-01-07T10:49:58;0.50;99.90
52509;DHT22;38420;53.150;6.370;2024-01-07T10:52:26;0.60;99.90
52509;DHT22;38420;53.150;6.370;2024-01-07T10:54:55;0.70;99.90
52509;DHT22;38420;53.150;6.370;2024-01-07T10:57:42;0.80;99.90
52509;DHT22;38420;53.150;6.370;2024-01-07T11:00:10;1.00;99.90
52509;DHT22;38420;53.150;6.370;2024-01-07T11:03:09;1.60;99.90
52509;DHT22;38420;53.150;6.370;2024-01-07T11:08:30;2.40;99.90
52509;DHT22;38420;53.150;6.370;2024-01-07T11:11:13;2.50;99.90
52509;DHT22;38420;53.150;6.370;2024-01-07T11:13:40;2.70;99.90
52509;DHT22;38420;53.150;6.370;2024-01-07T11:16:10;2.90;99.90
52509;DHT22;38420;53.150;6.370;2024-01-07T11:18:46;2.90;99.90
52509;DHT22;38420;53.150;6.370;2024-01-07T11:21:21;2.80;99.90
52509;DHT22;38420;53.150;6.370;2024-01-07T11:23:47;2.80;99.90
52509;DHT22;38420;53.150;6.370;2024-01-07T11:26:13;2.60;99.90
52509;DHT22;38420;53.150;6.370;2024-01-07T11:28:50;2.70;99.90
52509;DHT22;38420;53.150;6.370;2024-01-07T11:31:17;3.20;99.90
52509;DHT22;38420;53.150;6.370;2024-01-07T11:33:48;3.70;99.90
52509;DHT22;38420;53.150;6.370;2024-01-07T11:36:15;4.10;99.90
52509;DHT22;38420;53.150;6.370;2024-01-07T11:38:46;4.20;99.90
52509;DHT22;38420;53.150;6.370;2024-01-07T11:41:13;4.20;99.90
52509;DHT22;38420;53.150;6.370;2024-01-07T11:43:52;4.00;99.90
52509;DHT22;38420;53.150;6.370;2024-01-07T11:46:18;3.70;99.90
52509;DHT22;38420;53.150;6.370;2024-01-07T11:48:45;3.40;99.90
52509;DHT22;38420;53.150;6.370;2024-01-07T11:51:11;3.20;99.90
52509;DHT22;38420;53.150;6.370;2024-01-07T11:53:37;3.20;99.90
52509;DHT22;38420;53.150;6.370;2024-01-07T11:56:03;3.00;99.90
52509;DHT22;38420;53.150;6.370;2024-01-07T11:58:29;2.70;99.90
52509;DHT22;38420;53.150;6.370;2024-01-07T12:00:54;2.30;99.90
52509;DHT22;38420;53.150;6.370;2024-01-07T12:03:20;2.00;99.90
52509;DHT22;38420;53.150;6.370;2024-01-07T12:05:46;2.00;99.90
52509;DHT22;38420;53.150;6.370;2024-01-07T12:08:14;2.00;99.90
52509;DHT22;38420;53.150;6.370;2024-01-07T12:10:39;2.10;99.90
52509;DHT22;38420;53.150;6.370;2024-01-07T12:13:05;2.20;99.90
52509;DHT22;38420;53.150;6.370;2024-01-07T12:15:32;2.30;99.90
52509;DHT22;38420;53.150;6.370;2024-01-07T12:17:59;2.30;99.90
52509;DHT22;38420;53.150;6.370;2024-01-07T12:20:27;2.20;99.90
52509;DHT22;38420;53.150;6.370;2024-01-07T12:22:56;2.30;99.90
52509;DHT22;38420;53.150;6.370;2024-01-07T12:25:22;2.50;99.90
52509;DHT22;38420;53.150;6.370;2024-01-07T12:27:51;2.60;99.90
52509;DHT22;38420;53.150;6.370;2024-01-07T12:30:20;2.50;99.90
52509;DHT22;38420;53.150;6.370;2024-01-07T12:32:46;2.50;99.90
52509;DHT22;38420;53.150;6.370;2024-01-07T12:35:12;2.70;99.90
52509;DHT22;38420;53.150;6.370;2024-01-07T12:37:38;2.60;99.90
52509;DHT22;38420;53.150;6.370;2024-01-07T12:40:04;2.50;99.90
52509;DHT22;38420;53.150;6.370;2024-01-07T12:42:30;2.40;99.90
52509;DHT22;38420;53.150;6.370;2024-01-07T12:44:55;2.40;99.90
52509;DHT22;38420;53.150;6.370;2024-01-07T12:47:21;2.40;99.90
52509;DHT22;38420;53.150;6.370;2024-01-07T12:49:46;2.80;99.90
52509;DHT22;38420;53.150;6.370;2024-01-07T12:52:12;3.00;99.90
52509;DHT22;38420;53.150;6.370;2024-01-07T12:54:38;2.90;99.90
52509;DHT22;38420;53.150;6.370;2024-01-07T12:57:04;2.50;99.90
52509;DHT22;38420;53.150;6.370;2024-01-07T12:59:29;2.30;99.90
52509;DHT22;38420;53.150;6.370;2024-01-07T13:01:55;2.10;99.90
52509;DHT22;38420;53.150;6.370;2024-01-07T13:04:21;2.00;99.90
52509;DHT22;38420;53.150;6.370;2024-01-07T13:06:47;2.20;99.90
52509;DHT22;38420;53.150;6.370;2024-01-07T13:09:12;2.20;99.90
52509;DHT22;38420;53.150;6.370;2024-01-07T13:11:38;2.10;99.90
52509;DHT22;38420;53.150;6.370;2024-01-07T13:14:03;1.90;99.90
52509;DHT22;38420;53.150;6.370;2024-01-07T13:16:29;1.90;99.90
52509;DHT22;38420;53.150;6.370;2024-01-07T13:18:55;2.00;99.90
52509;DHT22;38420;53.150;6.370;2024-01-07T13:21:21;1.90;99.90
52509;DHT22;38420;53.150;6.370;2024-01-07T13:23:47;2.40;99.90
52509;DHT22;38420;53.150;6.370;2024-01-07T13:26:13;2.90;99.90
52509;DHT22;38420;53.150;6.370;2024-01-07T13:28:39;3.00;99.90
52509;DHT22;38420;53.150;6.370;2024-01-07T13:31:05;2.90;99.90
52509;DHT22;38420;53.150;6.370;2024-01-07T13:33:32;2.70;99.90
52509;DHT22;38420;53.150;6.370;2024-01-07T13:35:58;2.60;99.90
52509;DHT22;38420;53.150;6.370;2024-01-07T13:38:23;2.30;99.90
52509;DHT22;38420;53.150;6.370;2024-01-07T13:40:49;2.30;99.90
52509;DHT22;38420;53.150;6.370;2024-01-07T13:43:15;2.60;99.90
52509;DHT22;38420;53.150;6.370;2024-01-07T13:45:40;2.90;99.90
52509;DHT22;38420;53.150;6.370;2024-01-07T13:48:06;3.30;99.90
52509;DHT22;38420;53.150;6.370;2024-01-07T13:50:33;3.50;99.90
52509;DHT22;38420;53.150;6.370;2024-01-07T13:52:59;3.80;99.90
52509;DHT22;38420;53.150;6.370;2024-01-07T13:55:24;4.10;99.90
52509;DHT22;38420;53.150;6.370;2024-01-07T13:57:50;4.10;99.90
52509;DHT22;38420;53.150;6.370;2024-01-07T14:00:16;4.00;99.90
52509;DHT22;38420;53.150;6.370;2024-01-07T14:02:44;3.80;99.90
52509;DHT22;38420;53.150;6.370;2024-01-07T14:05:14;3.40;99.90
52509;DHT22;38420;53.150;6.370;2024-01-07T14:07:40;2.90;99.90
52509;DHT22;38420;53.150;6.370;2024-01-07T14:10:07;2.40;99.90
52509;DHT22;38420;53.150;6.370;2024-01-07T14:12:34;2.00;99.90
52509;DHT22;38420;53.150;6.370;2024-01-07T14:14:59;1.70;99.90
52509;DHT22;38420;53.150;6.370;2024-01-07T14:17:25;1.40;99.90
52509;DHT22;38420;53.150;6.370;2024-01-07T14:19:51;1.30;99.90
52509;DHT22;38420;53.150;6.370;2024-01-07T14:22:21;1.10;99.90
52509;DHT22;38420;53.150;6.370;2024-01-07T14:24:48;1.10;99.90
52509;DHT22;38420;53.150;6.370;2024-01-07T14:27:17;0.90;99.90
52509;DHT22;38420;53.150;6.370;2024-01-07T14:29:43;0.90;99.90
52509;DHT22;38420;53.150;6.370;2024-01-07T14:32:10;0.80;99.90
52509;DHT22;38420;53.150;6.370;2024-01-07T14:34:39;0.70;99.90
52509;DHT22;38420;53.150;6.370;2024-01-07T14:37:09;0.70;99.90
52509;DHT22;38420;53.150;6.370;2024-01-07T14:39:38;0.60;99.90
52509;DHT22;38420;53.150;6.370;2024-01-07T14:42:04;0.60;99.90
52509;DHT22;38420;53.150;6.370;2024-01-07T14:44:30;0.60;99.90
52509;DHT22;38420;53.150;6.370;2024-01-07T14:46:56;0.50;99.90
52509;DHT22;38420;53.150;6.370;2024-01-07T14:49:21;0.40;99.90
52509;DHT22;38420;53.150;6.370;2024-01-07T14:51:47;0.40;99.90
52509;DHT22;38420;53.150;6.370;2024-01-07T14:54:13;0.40;99.90
52509;DHT22;38420;53.150;6.370;2024-01-07T14:56:39;0.40;99.90
52509;DHT22;38420;53.150;6.370;2024-01-07T14:59:05;0.40;99.90
52509;DHT22;38420;53.150;6.370;2024-01-07T15:01:30;0.40;99.90
52509;DHT22;38420;53.150;6.370;2024-01-07T15:03:56;0.30;99.90
52509;DHT22;38420;53.150;6.370;2024-01-07T15:06:21;0.30;99.90
52509;DHT22;38420;53.150;6.370;2024-01-07T15:08:47;0.30;99.90
52509;DHT22;38420;53.150;6.370;2024-01-07T15:11:14;0.30;99.90
52509;DHT22;38420;53.150;6.370;2024-01-07T15:13:40;0.30;99.90
52509;DHT22;38420;53.150;6.370;2024-01-07T15:16:07;0.20;99.90
52509;DHT22;38420;53.150;6.370;2024-01-07T15:18:32;0.10;99.90
52509;DHT22;38420;53.150;6.370;2024-01-07T15:20:58;0.20;99.90
52509;DHT22;38420;53.150;6.370;2024-01-07T15:23:24;0.10;99.90
52509;DHT22;38420;53.150;6.370;2024-01-07T15:25:49;0.00;99.90
52509;DHT22;38420;53.150;6.370;2024-01-07T15:28:15;0.00;99.90
52509;DHT22;38420;53.150;6.370;2024-01-07T15:30:40;0.10;99.90
52509;DHT22;38420;53.150;6.370;2024-01-07T15:33:06;-0.10;99.90
52509;DHT22;38420;53.150;6.370;2024-01-07T15:35:32;-0.10;99.90
52509;DHT22;38420;53.150;6.370;2024-01-07T15:37:57;-0.10;99.90